createdAt,value
2023-05-14T00:02:17.523Z,45.80
2023-05-14T00:07:21.675Z,46.50
2023-05-14T00:12:30.524Z,48.20
2023-05-14T00:17:34.592Z,46.30
2023-05-14T00:22:39.866Z,47.60
2023-05-14T00:27:43.886Z,40.80
2023-05-14T00:32:47.996Z,44.40
2023-05-14T00:37:52.035Z,45.40
2023-05-14T00:42:57.296Z,39.70
2023-05-14T00:48:01.267Z,38.80
2023-05-14T00:53:10.759Z,39.70
2023-05-14T00:58:15.088Z,41.80
2023-05-14T01:03:23.638Z,38.20
2023-05-14T01:08:42.525Z,34.40
2023-05-14T01:14:07.646Z,38.40
2023-05-14T01:19:27.729Z,34.70
2023-05-14T01:24:31.860Z,30.90
2023-05-14T01:29:39.365Z,32.10
2023-05-14T01:34:47.859Z,30.10
2023-05-14T01:39:52.942Z,32.60
2023-05-14T01:44:57.312Z,26.00
2023-05-14T01:50:01.355Z,28.40
2023-05-14T01:55:06.700Z,29.00
2023-05-14T02:00:11.891Z,31.30
2023-05-14T02:05:19.335Z,29.80
2023-05-14T02:10:23.843Z,26.00
2023-05-14T02:15:29.180Z,25.90
2023-05-14T02:20:33.096Z,29.60
2023-05-14T02:25:38.165Z,22.90
2023-05-14T02:30:42.287Z,25.40
2023-05-14T02:35:46.528Z,24.50
2023-05-14T02:40:50.795Z,25.30
2023-05-14T02:45:54.918Z,27.50
2023-05-14T02:50:59.238Z,21.70
2023-05-14T02:56:03.388Z,24.20
2023-05-14T03:01:07.818Z,24.20
2023-05-14T03:06:12.471Z,24.40
2023-05-14T03:11:16.418Z,22.80
2023-05-14T03:16:20.501Z,23.00
2023-05-14T03:21:25.489Z,19.00
2023-05-14T03:26:29.419Z,20.80
2023-05-14T03:31:33.550Z,20.50
2023-05-14T03:36:39.375Z,22.30
2023-05-14T03:41:43.867Z,16.10
2023-05-14T03:46:48.408Z,18.50
2023-05-14T03:51:52.856Z,18.20
2023-05-14T03:56:57.108Z,17.90
2023-05-14T04:02:01.444Z,19.30
2023-05-14T04:07:05.557Z,17.10
2023-05-14T04:12:10.223Z,18.80
2023-05-14T04:17:14.464Z,15.60
2023-05-14T04:22:18.901Z,18.90
2023-05-14T04:27:22.933Z,17.30
2023-05-14T04:32:27.390Z,14.50
2023-05-14T04:37:32.250Z,16.30
2023-05-14T04:42:36.246Z,13.00
2023-05-14T04:47:40.442Z,15.40
2023-05-14T04:52:44.731Z,16.30
2023-05-14T04:57:49.778Z,16.00
2023-05-14T05:02:53.889Z,17.90
2023-05-14T05:07:57.942Z,13.20
2023-05-14T05:13:02.294Z,15.90
2023-05-14T05:18:06.758Z,14.70
2023-05-14T05:23:10.871Z,13.20
2023-05-14T05:28:15.093Z,14.50
2023-05-14T05:33:19.652Z,16.50
2023-05-14T05:38:23.570Z,12.10
2023-05-14T05:43:29.034Z,11.90
2023-05-14T05:48:33.070Z,11.00
2023-05-14T05:53:37.098Z,10.40
2023-05-14T05:58:41.445Z,14.80
2023-05-14T06:03:47.740Z,13.10
2023-05-14T06:08:52.681Z,11.30
2023-05-14T06:13:56.915Z,11.50
2023-05-14T06:19:00.880Z,12.60
2023-05-14T06:24:05.702Z,16.10
2023-05-14T06:29:09.925Z,14.30
2023-05-14T06:34:14.087Z,10.70
2023-05-14T06:39:18.236Z,11.60
2023-05-14T06:44:22.356Z,9.70
2023-05-14T06:49:26.907Z,8.60
2023-05-14T06:54:31.530Z,10.90
2023-05-14T06:59:36.383Z,10.40
2023-05-14T07:04:40.503Z,9.80
2023-05-14T07:09:44.749Z,9.00
2023-05-14T07:14:48.881Z,9.20
2023-05-14T07:19:52.920Z,10.30
2023-05-14T07:24:56.937Z,9.80
2023-05-14T07:30:01.195Z,9.40
2023-05-14T07:35:06.770Z,9.80
2023-05-14T07:40:11.529Z,6.70
2023-05-14T07:45:15.637Z,9.20
2023-05-14T07:50:20.195Z,7.90
2023-05-14T07:55:24.110Z,8.10
2023-05-14T08:00:28.250Z,7.60
2023-05-14T08:05:33.410Z,10.10
2023-05-14T08:10:37.578Z,23.60
2023-05-14T08:15:41.566Z,8.40
2023-05-14T08:20:45.708Z,7.90
2023-05-14T08:25:49.977Z,11.10
2023-05-14T08:30:54.145Z,10.80
2023-05-14T08:36:00.884Z,51.50
2023-05-14T08:41:06.649Z,118.60
2023-05-14T08:46:13.789Z,111.80
2023-05-14T08:51:25.327Z,179.50
2023-05-14T08:56:35.593Z,148.40
2023-05-14T09:01:50.383Z,132.60
2023-05-14T09:06:56.041Z,134.30
2023-05-14T09:12:01.751Z,120.40
2023-05-14T09:17:05.883Z,123.00
2023-05-14T09:22:13.338Z,99.70
2023-05-14T09:27:22.996Z,108.10
2023-05-14T09:32:28.050Z,109.40
2023-05-14T09:37:37.181Z,103.70
2023-05-14T09:42:42.207Z,100.20
2023-05-14T09:47:46.424Z,97.70
2023-05-14T09:52:50.898Z,88.20
2023-05-14T09:57:54.824Z,88.10
2023-05-14T10:02:59.582Z,85.50
2023-05-14T10:08:14.668Z,83.50
2023-05-14T10:13:23.348Z,75.60
2023-05-14T10:18:31.061Z,74.50
2023-05-14T10:23:38.309Z,72.10
2023-05-14T10:28:42.922Z,68.30
2023-05-14T10:33:51.763Z,77.00
2023-05-14T10:38:59.103Z,62.60
2023-05-14T10:44:10.624Z,62.80
2023-05-14T10:49:14.650Z,50.60
2023-05-14T10:54:19.693Z,54.40
2023-05-14T10:59:28.822Z,53.30
2023-05-14T11:04:33.400Z,58.80
2023-05-14T11:09:38.870Z,47.50
2023-05-14T11:14:43.239Z,41.80
2023-05-14T11:19:48.362Z,47.70
2023-05-14T11:24:54.036Z,38.80
2023-05-14T11:29:58.628Z,35.40
2023-05-14T11:35:02.988Z,36.20
2023-05-14T11:40:12.688Z,35.80
2023-05-14T11:45:29.150Z,33.10
2023-05-14T11:50:37.093Z,31.70
2023-05-14T11:55:41.153Z,35.30
2023-05-14T12:00:46.195Z,37.30
2023-05-14T12:06:01.522Z,32.70
2023-05-14T12:11:05.652Z,32.70
2023-05-14T12:16:09.840Z,31.80
2023-05-14T12:21:14.016Z,33.50
2023-05-14T12:26:17.940Z,38.30
2023-05-14T12:31:33.808Z,29.70
2023-05-14T12:36:37.771Z,22.80
2023-05-14T12:41:41.911Z,25.90
2023-05-14T12:46:46.439Z,25.30
2023-05-14T12:51:52.826Z,20.20
2023-05-14T12:57:04.976Z,19.40
2023-05-14T13:02:09.608Z,27.60
2023-05-14T13:07:13.736Z,17.80
2023-05-14T13:12:17.769Z,18.30
2023-05-14T13:17:22.043Z,21.80
2023-05-14T13:22:25.940Z,17.70
2023-05-14T13:27:31.102Z,27.90
2023-05-14T13:32:35.294Z,21.40
2023-05-14T13:37:39.844Z,23.40
2023-05-14T13:42:43.716Z,27.10
2023-05-14T13:47:48.774Z,19.30
2023-05-14T13:52:53.441Z,16.70
2023-05-14T13:57:57.848Z,21.90
2023-05-14T14:03:02.010Z,11.90
2023-05-14T14:08:22.083Z,22.80
2023-05-14T14:13:28.372Z,26.20
2023-05-14T14:18:32.945Z,17.00
2023-05-14T14:23:36.939Z,16.00
2023-05-14T14:28:40.987Z,13.20
2023-05-14T14:33:44.904Z,11.40
2023-05-14T14:38:48.842Z,16.10
2023-05-14T14:43:53.314Z,16.10
2023-05-14T14:48:57.113Z,14.30
2023-05-14T14:54:01.035Z,14.40
2023-05-14T14:59:05.089Z,13.80
2023-05-14T15:04:09.319Z,15.70
2023-05-14T15:09:13.476Z,13.70
2023-05-14T15:14:17.557Z,7.00
2023-05-14T15:19:21.634Z,8.50
2023-05-14T15:24:26.583Z,10.50
2023-05-14T15:29:30.719Z,7.10
2023-05-14T15:34:35.175Z,7.00
2023-05-14T15:39:39.199Z,7.90
2023-05-14T15:44:43.324Z,10.20
2023-05-14T15:49:47.767Z,6.60
2023-05-14T15:54:51.789Z,10.00
2023-05-14T15:59:57.291Z,7.00
2023-05-14T16:05:02.148Z,4.70
2023-05-14T16:10:07.169Z,7.30
2023-05-14T16:15:11.901Z,12.60
2023-05-14T16:20:15.941Z,9.40
2023-05-14T16:25:19.773Z,6.30
2023-05-14T16:30:25.659Z,7.20
2023-05-14T16:35:31.105Z,5.20
2023-05-14T16:40:35.045Z,5.20
2023-05-14T16:45:40.670Z,4.90
2023-05-14T16:50:44.940Z,12.80
2023-05-14T16:55:49.179Z,10.00
2023-05-14T17:00:53.308Z,7.30
2023-05-14T17:05:58.408Z,18.30
2023-05-14T17:11:06.138Z,12.10
2023-05-14T17:16:09.072Z,15.90
2023-05-14T17:21:13.429Z,5.40
2023-05-14T17:26:18.080Z,13.40
2023-05-14T17:31:22.879Z,8.10
2023-05-14T17:36:28.781Z,10.30
2023-05-14T17:41:32.841Z,10.30
2023-05-14T17:46:37.528Z,10.00
2023-05-14T17:51:42.439Z,7.90
2023-05-14T17:56:48.625Z,8.10
2023-05-14T18:01:53.087Z,9.90
2023-05-14T18:06:57.828Z,14.10
2023-05-14T18:12:01.753Z,8.90
2023-05-14T18:17:08.418Z,7.00
2023-05-14T18:22:12.691Z,7.00
2023-05-14T18:27:17.030Z,19.80
2023-05-14T18:32:22.292Z,7.80
2023-05-14T18:37:27.144Z,5.00
2023-05-14T18:42:32.671Z,13.80
2023-05-14T18:47:37.077Z,8.40
2023-05-14T18:52:42.822Z,7.30
2023-05-14T18:57:47.083Z,7.20
2023-05-14T19:02:53.309Z,6.70
2023-05-14T19:07:59.392Z,7.30
2023-05-14T19:13:04.604Z,8.00
2023-05-14T19:18:09.024Z,11.80
2023-05-14T19:23:14.365Z,11.80
2023-05-14T19:28:20.230Z,8.10
2023-05-14T19:33:26.784Z,17.30
2023-05-14T19:38:33.531Z,8.60
2023-05-14T19:43:38.450Z,10.70
2023-05-14T19:48:42.724Z,12.80
2023-05-14T19:53:48.921Z,9.20
2023-05-14T19:58:53.469Z,13.00
2023-05-14T20:03:57.897Z,8.50
2023-05-14T20:09:02.442Z,4.80
2023-05-14T20:14:06.780Z,10.60
2023-05-14T20:19:12.135Z,5.50
2023-05-14T20:24:17.097Z,13.20
2023-05-14T20:29:21.333Z,8.60
2023-05-14T20:34:25.460Z,5.00
2023-05-14T20:39:29.300Z,6.70
2023-05-14T20:44:35.170Z,5.60
2023-05-14T20:49:38.955Z,12.70
2023-05-14T20:54:43.698Z,7.60
2023-05-14T20:59:48.097Z,7.60
2023-05-14T21:04:52.561Z,8.00
2023-05-14T21:09:56.438Z,11.80
2023-05-14T21:15:00.893Z,14.20
2023-05-14T21:20:05.345Z,8.10
2023-05-14T21:25:09.800Z,6.80
2023-05-14T21:30:14.441Z,6.90
2023-05-14T21:35:19.436Z,8.10
2023-05-14T21:40:23.412Z,19.30
2023-05-14T21:45:28.050Z,10.40
2023-05-14T21:50:32.609Z,7.10
2023-05-14T21:55:36.755Z,5.90
2023-05-14T22:00:40.972Z,8.40
2023-05-14T22:05:45.107Z,4.50
2023-05-14T22:10:49.245Z,6.40
2023-05-14T22:16:01.365Z,6.30
2023-05-14T22:21:13.502Z,5.40
2023-05-14T22:26:18.042Z,5.70
2023-05-14T22:31:22.337Z,7.30
2023-05-14T22:36:26.405Z,5.70
2023-05-14T22:41:31.271Z,7.00
2023-05-14T22:46:35.853Z,5.40
2023-05-14T22:51:40.656Z,5.70
2023-05-14T22:56:44.677Z,8.10
2023-05-14T23:01:48.743Z,4.50
2023-05-14T23:06:52.966Z,4.10
2023-05-14T23:11:57.282Z,5.90
2023-05-14T23:17:01.318Z,4.20
2023-05-14T23:22:05.764Z,5.10
2023-05-14T23:27:11.244Z,5.50
2023-05-14T23:32:15.429Z,6.00
2023-05-14T23:37:19.749Z,5.00
2023-05-14T23:42:25.061Z,3.90
2023-05-14T23:47:29.432Z,5.10
2023-05-14T23:52:33.832Z,4.80
2023-05-14T23:57:38.198Z,4.70
